Terminal Aerodrome Forecast
Issued by NWS

Home | Current Version | Previous Version | Text Only | Print | Product List | Glossary On
Versions: 1 2 3 4 5 6 7 8 9 10 11 12 13 14 15 16 17 18 19 20 21 22
000
FTUS41 KBOX 252153 AAA
TAFACK
TAF AMD
KACK 252153Z 2522/2618 20012KT P6SM BKN100
     FM252300 18013KT 6SM BR VCSH BKN050
     FM260400 22010KT 1SM BR VCSH BKN008
     FM260600 23009KT 3/4SM BR BKN003
     FM261100 27009KT P6SM SCT008
     FM261600 25010KT P6SM FEW200=

USA.gov is the U.S. government's official web portal to all federal, state and local government web resources and services.